createdAt,value
2023-04-13T00:00:38.066Z,100532.22
2023-04-13T00:03:05.748Z,100535.66
2023-04-13T00:05:34.632Z,100526.22
2023-04-13T00:08:02.997Z,100521.91
2023-04-13T00:10:37.014Z,100518.50
2023-04-13T00:13:05.320Z,100514.22
2023-04-13T00:15:35.036Z,100508.19
2023-04-13T00:18:01.844Z,100508.22
2023-04-13T00:20:29.154Z,100512.50
2023-04-13T00:22:56.364Z,100515.94
2023-04-13T00:29:22.901Z,100501.31
2023-04-13T00:31:49.742Z,100502.19
2023-04-13T00:34:16.522Z,100491.03
2023-04-13T00:36:43.843Z,100479.91
2023-04-13T00:39:10.643Z,100467.88
2023-04-13T00:41:37.779Z,100469.59
2023-04-13T00:44:09.053Z,100470.44
2023-04-13T00:46:36.075Z,100482.44
2023-04-13T00:49:03.481Z,100479.00
2023-04-13T00:51:30.444Z,100473.84
2023-04-13T00:53:59.546Z,100467.84
2023-04-13T00:56:27.472Z,100460.09
2023-04-13T00:58:56.533Z,100450.66
2023-04-13T01:01:24.020Z,100459.25
2023-04-13T01:03:53.517Z,100442.91
2023-04-13T01:06:42.014Z,100437.78
2023-04-13T01:09:16.805Z,100436.94
2023-04-13T01:11:57.825Z,100436.06
2023-04-13T01:14:37.760Z,100444.66
2023-04-13T01:17:24.421Z,100445.47
2023-04-13T01:20:01.669Z,100446.34
2023-04-13T01:22:35.819Z,100435.16
2023-04-13T01:25:40.394Z,100432.59
2023-04-13T01:32:15.788Z,100423.94
2023-04-13T01:34:45.745Z,100414.50
2023-04-13T01:37:12.785Z,100416.22
2023-04-13T01:39:40.218Z,100411.94
2023-04-13T01:42:36.664Z,100405.06
2023-04-13T01:45:06.201Z,100404.22
2023-04-13T01:47:36.309Z,100382.78
2023-04-13T01:50:25.880Z,100397.38
2023-04-13T01:53:31.548Z,100387.97
2023-04-13T01:56:01.064Z,100396.53
2023-04-13T01:58:28.561Z,100395.66
2023-04-13T02:01:00.327Z,100381.94
2023-04-13T02:03:27.151Z,100361.38
2023-04-13T02:05:54.498Z,100358.78
2023-04-13T02:08:21.433Z,100357.09
2023-04-13T02:10:48.968Z,100352.81
2023-04-13T02:13:15.975Z,100341.66
2023-04-13T02:15:42.971Z,100337.38
2023-04-13T02:18:10.664Z,100339.94
2023-04-13T02:20:45.352Z,100327.94
2023-04-13T02:23:15.196Z,100324.53
2023-04-13T02:25:47.692Z,100321.13
2023-04-13T02:28:18.017Z,100318.53
2023-04-13T02:30:47.199Z,100325.38
2023-04-13T02:33:14.059Z,100326.25
2023-04-13T02:35:41.315Z,100322.81
2023-04-13T02:38:09.764Z,100320.25
2023-04-13T02:40:38.781Z,100315.09
2023-04-13T02:43:06.922Z,100318.56
2023-04-13T02:45:37.426Z,100309.97
2023-04-13T02:48:06.970Z,100306.56
2023-04-13T02:50:34.093Z,100299.66
2023-04-13T02:53:07.906Z,100296.28
2023-04-13T02:55:37.063Z,100297.09
2023-04-13T02:58:09.477Z,100300.56
2023-04-13T03:00:37.528Z,100291.13
2023-04-13T03:03:10.174Z,100295.41
2023-04-13T03:05:43.364Z,100288.53
2023-04-13T03:08:14.513Z,100289.38
2023-04-13T03:10:54.374Z,100291.94
2023-04-13T03:13:22.228Z,100286.81
2023-04-13T03:15:53.059Z,100291.94
2023-04-13T03:18:20.894Z,100290.25
2023-04-13T03:20:47.751Z,100295.41
2023-04-13T03:23:15.089Z,100297.09
2023-04-13T03:25:42.664Z,100289.38
2023-04-13T03:28:09.672Z,100280.81
2023-04-13T03:30:41.484Z,100271.38
2023-04-13T03:33:08.267Z,100266.22
2023-04-13T03:35:37.204Z,100256.81
2023-04-13T03:38:07.509Z,100256.81
2023-04-13T03:40:40.413Z,100245.66
2023-04-13T03:43:07.239Z,100252.53
2023-04-13T03:45:37.832Z,100263.69
2023-04-13T03:48:09.566Z,100260.22
2023-04-13T03:50:36.293Z,100249.97
2023-04-13T03:53:04.772Z,100242.22
2023-04-13T03:55:32.264Z,100248.25
2023-04-13T03:58:05.007Z,100251.66
2023-04-13T04:00:31.891Z,100249.09
2023-04-13T04:03:11.485Z,100243.09
2023-04-13T04:05:54.417Z,100238.81
2023-04-13T04:08:21.367Z,100244.78
2023-04-13T04:10:49.112Z,100241.34
2023-04-13T04:13:17.364Z,100242.22
2023-04-13T04:15:48.579Z,100234.50
2023-04-13T04:18:16.402Z,100227.63
2023-04-13T04:20:43.556Z,100221.66
2023-04-13T04:23:12.711Z,100217.34
2023-04-13T04:26:00.267Z,100219.06
2023-04-13T04:28:38.719Z,100216.50
2023-04-13T04:31:12.034Z,100223.34
2023-04-13T04:33:42.945Z,100218.19
2023-04-13T04:36:16.796Z,100227.63
2023-04-13T04:39:02.459Z,100222.47
2023-04-13T04:41:37.349Z,100219.94
2023-04-13T04:44:07.799Z,100234.50
2023-04-13T04:46:41.821Z,100237.06
2023-04-13T04:49:13.135Z,100231.03
2023-04-13T04:51:40.772Z,100242.19
2023-04-13T04:54:08.386Z,100246.50
2023-04-13T04:56:35.898Z,100246.47
2023-04-13T04:59:02.729Z,100257.63
2023-04-13T05:01:40.557Z,100244.78
2023-04-13T05:04:12.362Z,100240.47
2023-04-13T05:06:41.619Z,100237.06
2023-04-13T05:09:11.848Z,100240.47
2023-04-13T05:11:43.718Z,100251.66
2023-04-13T05:14:11.844Z,100244.81
2023-04-13T05:16:39.427Z,100238.78
2023-04-13T05:22:57.327Z,100255.09
2023-04-13T05:25:26.176Z,100253.34
2023-04-13T05:27:54.230Z,100255.09
2023-04-13T05:30:22.096Z,100262.81
2023-04-13T05:32:48.849Z,100255.06
2023-04-13T05:35:16.047Z,100258.50
2023-04-13T05:37:44.634Z,100269.66
2023-04-13T05:40:18.606Z,100264.50
2023-04-13T05:42:45.514Z,100256.81
2023-04-13T05:45:17.282Z,100250.81
2023-04-13T05:48:04.902Z,100249.94
2023-04-13T05:50:32.147Z,100248.22
2023-04-13T05:52:59.070Z,100249.09
2023-04-13T05:55:31.022Z,100255.97
2023-04-13T05:58:03.933Z,100241.38
2023-04-13T06:00:31.149Z,100254.25
2023-04-13T06:03:04.108Z,100258.53
2023-04-13T06:05:33.135Z,100262.78
2023-04-13T06:07:59.947Z,100265.38
2023-04-13T06:10:26.920Z,100267.97
2023-04-13T06:12:55.541Z,100260.22
2023-04-13T06:15:22.439Z,100254.25
2023-04-13T06:17:53.425Z,100238.81
2023-04-13T06:20:21.633Z,100252.53
2023-04-13T06:22:49.156Z,100249.09
2023-04-13T06:25:18.821Z,100249.13
2023-04-13T06:27:49.973Z,100249.97
2023-04-13T06:30:19.020Z,100255.13
2023-04-13T06:32:47.425Z,100272.25
2023-04-13T06:35:17.528Z,100284.25
2023-04-13T06:37:47.974Z,100288.56
2023-04-13T06:40:21.190Z,100298.00
2023-04-13T06:42:57.813Z,100309.13
2023-04-13T06:45:37.317Z,100313.38
2023-04-13T06:48:08.670Z,100306.53
2023-04-13T06:50:37.771Z,100312.50
2023-04-13T06:53:06.738Z,100315.94
2023-04-13T06:55:34.325Z,100309.94
2023-04-13T06:58:01.380Z,100307.38
2023-04-13T07:00:30.408Z,100309.97
2023-04-13T07:02:59.556Z,100293.69
2023-04-13T07:05:26.868Z,100292.00
2023-04-13T07:07:57.286Z,100291.13
2023-04-13T07:10:24.428Z,100292.84
2023-04-13T07:12:52.758Z,100297.16
2023-04-13T07:15:22.306Z,100286.84
2023-04-13T07:17:49.709Z,100283.41
2023-04-13T07:20:17.683Z,100279.16
2023-04-13T07:22:46.978Z,100278.25
2023-04-13T07:25:13.705Z,100281.72
2023-04-13T07:27:40.543Z,100273.97
2023-04-13T07:30:10.755Z,100267.97
2023-04-13T07:32:42.424Z,100261.97
2023-04-13T07:35:10.038Z,100267.97
2023-04-13T07:37:38.741Z,100267.13
2023-04-13T07:40:08.474Z,100274.84
2023-04-13T07:42:36.215Z,100279.13
2023-04-13T07:45:03.180Z,100279.97
2023-04-13T07:47:31.497Z,100285.97
2023-04-13T07:50:06.419Z,100286.84
2023-04-13T07:52:35.068Z,100298.81
2023-04-13T07:55:03.476Z,100303.13
2023-04-13T07:57:34.156Z,100307.44
2023-04-13T08:00:06.093Z,100318.56
2023-04-13T08:02:40.833Z,100335.72
2023-04-13T08:05:12.529Z,100337.41
2023-04-13T08:07:40.053Z,100319.41
2023-04-13T08:10:08.328Z,100309.13
2023-04-13T08:12:35.397Z,100309.13
2023-04-13T08:15:02.428Z,100316.84
2023-04-13T08:17:29.637Z,100316.00
2023-04-13T08:19:57.046Z,100311.72
2023-04-13T08:22:26.632Z,100314.28
2023-04-13T08:24:54.754Z,100314.28
2023-04-13T08:27:21.732Z,100313.44
2023-04-13T08:29:55.644Z,100304.88
2023-04-13T08:32:22.637Z,100301.47
2023-04-13T08:34:51.469Z,100302.28
2023-04-13T08:37:18.246Z,100297.16
2023-04-13T08:39:48.385Z,100311.72
2023-04-13T08:42:18.817Z,100324.59
2023-04-13T08:44:46.664Z,100320.31
2023-04-13T08:47:13.698Z,100328.88
2023-04-13T08:49:42.961Z,100332.31
2023-04-13T08:52:16.920Z,100336.63
2023-04-13T08:54:47.770Z,100328.03
2023-04-13T08:57:29.848Z,100317.72
2023-04-13T08:59:58.989Z,100320.31
2023-04-13T09:02:34.156Z,100328.91
2023-04-13T09:05:15.940Z,100325.47
2023-04-13T09:07:53.871Z,100323.75
2023-04-13T09:10:28.585Z,100326.31
2023-04-13T09:12:56.611Z,100333.19
2023-04-13T09:15:26.437Z,100326.31
2023-04-13T09:18:12.735Z,100319.47
2023-04-13T09:20:58.441Z,100314.31
2023-04-13T09:23:25.605Z,100321.19
2023-04-13T09:26:08.732Z,100328.94
2023-04-13T09:28:45.496Z,100335.78
2023-04-13T09:31:13.740Z,100326.34
2023-04-13T09:33:46.131Z,100333.22
2023-04-13T09:36:14.249Z,100336.66
2023-04-13T09:38:43.930Z,100333.19
2023-04-13T09:41:10.794Z,100338.34
2023-04-13T09:43:38.916Z,100330.63
2023-04-13T09:46:13.494Z,100328.03
2023-04-13T09:48:41.230Z,100323.78
2023-04-13T09:51:09.843Z,100318.59
2023-04-13T09:53:46.543Z,100318.59
2023-04-13T09:56:14.074Z,100334.06
2023-04-13T09:58:45.707Z,100346.97
2023-04-13T10:01:15.217Z,100343.53
2023-04-13T10:03:43.135Z,100336.66
2023-04-13T10:06:09.971Z,100328.06
2023-04-13T10:08:42.725Z,100316.03
2023-04-13T10:11:16.804Z,100305.75
2023-04-13T10:14:07.424Z,100315.19
2023-04-13T10:16:43.325Z,100321.22
2023-04-13T10:19:12.825Z,100329.78
2023-04-13T10:21:43.822Z,100334.06
2023-04-13T10:24:12.715Z,100351.25
2023-04-13T10:26:41.468Z,100341.78
2023-04-13T10:29:10.338Z,100339.19
2023-04-13T10:31:38.167Z,100330.63
2023-04-13T10:34:06.479Z,100331.47
2023-04-13T10:36:42.198Z,100319.47
2023-04-13T10:39:10.874Z,100325.50
2023-04-13T10:41:38.024Z,100317.78
2023-04-13T10:44:08.761Z,100309.16
2023-04-13T10:46:36.050Z,100310.91
2023-04-13T10:49:04.727Z,100314.34
2023-04-13T10:51:45.323Z,100309.19
2023-04-13T10:54:14.064Z,100304.91
2023-04-13T10:56:40.855Z,100315.22
2023-04-13T10:59:08.239Z,100322.91
2023-04-13T11:01:36.014Z,100325.50
2023-04-13T11:04:08.904Z,100319.47
2023-04-13T11:06:39.560Z,100333.19
2023-04-13T11:09:12.956Z,100342.63
2023-04-13T11:11:42.031Z,100344.38
2023-04-13T11:14:08.749Z,100327.19
2023-04-13T11:16:58.515Z,100309.16
2023-04-13T11:19:25.701Z,100304.03
2023-04-13T11:21:58.274Z,100297.16
2023-04-13T11:24:29.823Z,100288.56
2023-04-13T11:26:57.782Z,100301.44
2023-04-13T11:29:24.490Z,100292.00
2023-04-13T11:31:52.053Z,100294.59
2023-04-13T11:34:26.591Z,100290.31
2023-04-13T11:37:05.220Z,100300.59
2023-04-13T11:39:35.294Z,100287.72
2023-04-13T11:42:07.040Z,100273.13
2023-04-13T11:44:35.268Z,100274.84
2023-04-13T11:47:03.142Z,100270.56
2023-04-13T11:49:31.994Z,100258.56
2023-04-13T11:52:02.951Z,100244.81
2023-04-13T11:54:30.607Z,100235.38
2023-04-13T11:56:57.777Z,100235.38
2023-04-13T11:59:25.327Z,100232.78
2023-04-13T12:02:01.530Z,100222.50
2023-04-13T12:04:38.491Z,100217.34
2023-04-13T12:07:16.627Z,100215.59
2023-04-13T12:09:56.088Z,100213.00
2023-04-13T12:15:15.432Z,100199.28
2023-04-13T12:17:58.214Z,100208.72
2023-04-13T12:20:39.870Z,100216.44
2023-04-13T12:23:23.160Z,100213.88
2023-04-13T12:25:58.093Z,100223.34
2023-04-13T12:28:34.925Z,100227.63
2023-04-13T12:31:07.572Z,100220.75
2023-04-13T12:33:34.752Z,100219.06
2023-04-13T12:36:02.027Z,100213.94
2023-04-13T12:38:28.924Z,100203.63
2023-04-13T12:41:01.707Z,100203.59
2023-04-13T12:43:28.917Z,100201.03
2023-04-13T12:45:58.322Z,100197.59
2023-04-13T12:48:25.260Z,100189.00
2023-04-13T12:50:51.996Z,100192.44
2023-04-13T12:53:21.777Z,100183.81
2023-04-13T12:55:48.683Z,100197.47
2023-04-13T12:58:15.410Z,100184.59
2023-04-13T13:00:42.279Z,100184.59
2023-04-13T13:03:15.002Z,100165.78
2023-04-13T13:05:42.409Z,100160.66
2023-04-13T13:08:09.522Z,100165.81
2023-04-13T13:10:41.902Z,100167.53
2023-04-13T13:13:08.705Z,100164.94
2023-04-13T13:15:35.456Z,100155.47
2023-04-13T13:18:06.717Z,100155.44
2023-04-13T13:20:33.566Z,100146.84
2023-04-13T13:23:00.497Z,100139.13
2023-04-13T13:25:27.300Z,100133.13
2023-04-13T13:28:13.496Z,100131.34
2023-04-13T13:30:42.400Z,100121.06
2023-04-13T13:33:09.208Z,100115.00
2023-04-13T13:35:36.370Z,100116.66
2023-04-13T13:38:03.451Z,100116.59
2023-04-13T13:40:30.523Z,100120.88
2023-04-13T13:42:57.486Z,100116.56
2023-04-13T13:45:24.532Z,100115.75
2023-04-13T13:47:58.379Z,100094.38
2023-04-13T13:50:48.882Z,100107.31
2023-04-13T13:53:15.766Z,100106.50
2023-04-13T13:55:42.829Z,100098.81
2023-04-13T13:58:09.794Z,100089.44
2023-04-13T14:00:36.800Z,100079.13
2023-04-13T14:03:03.936Z,100074.84
2023-04-13T14:05:30.837Z,100071.50
2023-04-13T14:07:57.589Z,100064.59
2023-04-13T14:10:26.906Z,100047.41
2023-04-13T14:12:55.775Z,100037.94
2023-04-13T14:15:22.608Z,100032.78
2023-04-13T14:18:02.428Z,100033.66
2023-04-13T14:20:39.074Z,100042.22
2023-04-13T14:23:06.693Z,100037.94
2023-04-13T14:25:33.459Z,100045.75
2023-04-13T14:28:00.718Z,100030.31
2023-04-13T14:30:28.482Z,100033.78
2023-04-13T14:32:56.284Z,100033.75
2023-04-13T14:35:23.647Z,100025.22
2023-04-13T14:37:50.413Z,100025.25
2023-04-13T14:40:21.183Z,100014.94
2023-04-13T14:42:50.880Z,100013.22
2023-04-13T14:45:17.884Z,100006.34
2023-04-13T14:47:44.746Z,100008.94
2023-04-13T14:50:12.160Z,100007.06
2023-04-13T14:52:39.809Z,99989.09
2023-04-13T14:55:06.952Z,100007.97
2023-04-13T14:57:33.744Z,100007.97
2023-04-13T15:00:00.644Z,100002.81
2023-04-13T15:02:28.752Z,100006.19
2023-04-13T15:04:56.064Z,99992.31
2023-04-13T15:07:30.027Z,99997.34
2023-04-13T15:09:58.859Z,100001.50
2023-04-13T15:12:25.784Z,99994.63
2023-04-13T15:14:52.742Z,99990.31
2023-04-13T15:17:19.472Z,99996.34
2023-04-13T15:19:46.309Z,99976.66
2023-04-13T15:22:13.150Z,99985.94
2023-04-13T15:24:39.903Z,99991.06
2023-04-13T15:27:06.676Z,99990.22
2023-04-13T15:29:33.552Z,99984.28
2023-04-13T15:32:00.568Z,99989.41
2023-04-13T15:34:28.009Z,99993.63
2023-04-13T15:36:57.073Z,99994.41
2023-04-13T15:39:23.864Z,99981.53
2023-04-13T15:41:52.737Z,99967.81
2023-04-13T15:44:19.501Z,99958.28
2023-04-13T15:46:48.080Z,99965.91
2023-04-13T15:49:15.055Z,99971.06
2023-04-13T15:51:41.834Z,99977.22
2023-04-13T15:54:08.584Z,99979.69
2023-04-13T15:56:35.530Z,99985.63
2023-04-13T15:59:02.679Z,99993.34
2023-04-13T16:01:44.492Z,100006.22
2023-04-13T16:04:11.893Z,100010.63
2023-04-13T16:06:38.708Z,100010.63
2023-04-13T16:09:05.685Z,100018.31
2023-04-13T16:11:32.531Z,100002.97
2023-04-13T16:14:07.240Z,100017.56
2023-04-13T16:16:53.487Z,100021.91
2023-04-13T16:19:21.120Z,100028.06
2023-04-13T16:21:50.837Z,100023.91
2023-04-13T16:24:21.196Z,100038.63
2023-04-13T16:26:48.054Z,100027.69
2023-04-13T16:29:14.799Z,100033.72
2023-04-13T16:31:44.982Z,100032.00
2023-04-13T16:34:25.528Z,100026.91
2023-04-13T16:36:53.671Z,100040.72
2023-04-13T16:39:22.058Z,100027.00
2023-04-13T16:41:49.080Z,100027.06
2023-04-13T16:44:16.160Z,100024.50
2023-04-13T16:46:43.163Z,100024.53
2023-04-13T16:49:10.389Z,100023.69
2023-04-13T16:51:37.283Z,100015.97
2023-04-13T16:54:04.560Z,100019.38
2023-04-13T16:56:31.570Z,100004.84
2023-04-13T16:58:58.887Z,100000.59
2023-04-13T17:01:26.442Z,99991.16
2023-04-13T17:03:53.895Z,99992.84
2023-04-13T17:06:21.460Z,99992.88
2023-04-13T17:08:48.719Z,99992.00
2023-04-13T17:11:15.692Z,99980.03
2023-04-13T17:13:42.630Z,99988.59
2023-04-13T17:16:10.031Z,99983.41
2023-04-13T17:18:36.922Z,99981.72
2023-04-13T17:21:04.018Z,99989.44
2023-04-13T17:23:31.470Z,99993.72
2023-04-13T17:25:58.309Z,100002.31
2023-04-13T17:28:25.456Z,100002.31
2023-04-13T17:30:52.287Z,99999.75
2023-04-13T17:33:19.204Z,100000.59
2023-04-13T17:35:46.455Z,100010.88
2023-04-13T17:38:13.337Z,100009.16
2023-04-13T17:40:40.295Z,100022.00
2023-04-13T17:43:08.787Z,100015.97
2023-04-13T17:45:37.230Z,100020.25
2023-04-13T17:48:05.966Z,100007.41
2023-04-13T17:50:33.061Z,100012.56
2023-04-13T17:53:04.459Z,100003.16
2023-04-13T17:55:31.810Z,100000.56
2023-04-13T17:57:58.590Z,99991.16
2023-04-13T18:00:27.793Z,99999.72
2023-04-13T18:02:55.341Z,100007.44
2023-04-13T18:05:22.386Z,100007.41
2023-04-13T18:07:49.528Z,100020.25
2023-04-13T18:10:16.408Z,100022.84
2023-04-13T18:12:43.198Z,100024.53
2023-04-13T18:15:10.575Z,100027.09
2023-04-13T18:17:38.586Z,100021.97
2023-04-13T18:20:06.379Z,100030.56
2023-04-13T18:22:33.230Z,100028.84
2023-04-13T18:25:00.412Z,100021.97
2023-04-13T18:27:27.874Z,100031.38
2023-04-13T18:29:55.449Z,100035.69
2023-04-13T18:32:23.020Z,100038.25
2023-04-13T18:34:49.984Z,100040.81
2023-04-13T18:37:16.912Z,100041.66
2023-04-13T18:39:43.825Z,100033.06
2023-04-13T18:42:10.822Z,100037.34
2023-04-13T18:44:37.588Z,100039.03
2023-04-13T18:47:04.914Z,100050.16
2023-04-13T18:49:31.715Z,100075.81
2023-04-13T18:51:58.629Z,100077.47
2023-04-13T18:54:25.653Z,100082.47
2023-04-13T18:56:52.491Z,100088.31
2023-04-13T18:59:19.222Z,100090.03
2023-04-13T19:01:46.716Z,100089.19
2023-04-13T19:04:13.949Z,100084.94
2023-04-13T19:06:41.197Z,100098.63
2023-04-13T19:09:08.370Z,100088.41
2023-04-13T19:11:46.986Z,100094.47
2023-04-13T19:14:14.025Z,100101.28
2023-04-13T19:16:41.726Z,100095.31
2023-04-13T19:19:11.234Z,100097.91
2023-04-13T19:21:38.231Z,100108.22
2023-04-13T19:24:06.667Z,100103.06
2023-04-13T19:26:33.555Z,100103.88
2023-04-13T19:29:01.071Z,100111.50
2023-04-13T19:31:28.064Z,100110.59
2023-04-13T19:33:55.142Z,100111.28
2023-04-13T19:36:24.205Z,100116.47
2023-04-13T19:38:52.433Z,100113.91
2023-04-13T19:41:19.303Z,100126.72
2023-04-13T19:43:47.943Z,100120.66
2023-04-13T19:46:14.690Z,100112.13
2023-04-13T19:48:42.341Z,100122.34
2023-04-13T19:51:09.341Z,100117.34
2023-04-13T19:53:38.241Z,100131.78
2023-04-13T19:56:05.326Z,100130.06
2023-04-13T19:58:32.406Z,100133.56
2023-04-13T20:00:59.546Z,100142.09
2023-04-13T20:03:26.872Z,100146.19
2023-04-13T20:05:53.988Z,100147.03
2023-04-13T20:08:20.865Z,100157.34
2023-04-13T20:10:47.720Z,100155.66
2023-04-13T20:13:14.741Z,100165.88
2023-04-13T20:15:41.810Z,100170.16
2023-04-13T20:18:09.242Z,100163.31
2023-04-13T20:20:37.634Z,100170.16
2023-04-13T20:23:04.552Z,100171.03
2023-04-13T20:25:31.498Z,100171.78
2023-04-13T20:27:58.377Z,100171.00
2023-04-13T20:30:26.166Z,100169.97
2023-04-13T20:32:53.084Z,100169.97
2023-04-13T20:35:20.456Z,100163.16
2023-04-13T20:37:47.510Z,100162.28
2023-04-13T20:40:14.753Z,100161.31
2023-04-13T20:42:42.284Z,100162.97
2023-04-13T20:45:10.989Z,100162.13
2023-04-13T20:47:42.375Z,100162.03
2023-04-13T20:50:11.959Z,100169.66
2023-04-13T20:52:42.091Z,100170.47
2023-04-13T20:55:11.773Z,100177.25
2023-04-13T20:57:42.278Z,100170.41
2023-04-13T21:00:15.515Z,100170.38
2023-04-13T21:02:43.678Z,100167.03
2023-04-13T21:05:10.593Z,100161.94
2023-04-13T21:07:38.189Z,100155.16
2023-04-13T21:10:05.397Z,100159.47
2023-04-13T21:12:32.228Z,100143.22
2023-04-13T21:14:58.969Z,100145.69
2023-04-13T21:17:26.132Z,100150.00
2023-04-13T21:19:52.976Z,100141.50
2023-04-13T21:22:19.829Z,100139.66
2023-04-13T21:24:46.823Z,100124.28
2023-04-13T21:27:14.169Z,100129.38
2023-04-13T21:29:40.950Z,100106.25
2023-04-13T21:32:07.743Z,100114.06
2023-04-13T21:34:34.474Z,100125.25
2023-04-13T21:37:03.198Z,100129.34
2023-04-13T21:39:30.637Z,100138.66
2023-04-13T21:41:57.626Z,100141.31
2023-04-13T21:44:29.802Z,100144.72
2023-04-13T21:46:57.699Z,100160.84
2023-04-13T21:49:24.518Z,100142.09
2023-04-13T21:51:51.541Z,100146.34
2023-04-13T21:54:18.235Z,100151.22
2023-04-13T21:56:45.053Z,100151.16
2023-04-13T21:59:11.756Z,100157.16
2023-04-13T22:01:38.579Z,100154.53
2023-04-13T22:04:05.531Z,100156.34
2023-04-13T22:06:32.733Z,100156.38
2023-04-13T22:08:59.700Z,100163.03
2023-04-13T22:11:26.705Z,100161.03
2023-04-13T22:13:53.435Z,100166.97
2023-04-13T22:16:20.261Z,100172.88
2023-04-13T22:18:47.256Z,100166.97
2023-04-13T22:21:13.994Z,100170.38
2023-04-13T22:23:40.965Z,100180.50
2023-04-13T22:26:07.747Z,100179.44
2023-04-13T22:28:34.612Z,100184.69
2023-04-13T22:31:08.896Z,100183.75
2023-04-13T22:33:36.297Z,100181.22
2023-04-13T22:36:06.971Z,100185.31
2023-04-13T22:38:33.777Z,100192.91
2023-04-13T22:41:06.390Z,100216.81
2023-04-13T22:43:33.160Z,100211.28
2023-04-13T22:46:00.724Z,100218.94
2023-04-13T22:48:30.067Z,100213.81
2023-04-13T22:51:00.787Z,100209.47
2023-04-13T22:53:27.776Z,100209.56
2023-04-13T22:55:54.472Z,100211.94
2023-04-13T22:58:21.344Z,100217.97
2023-04-13T23:00:48.057Z,100216.22
2023-04-13T23:03:15.021Z,100231.34
2023-04-13T23:05:41.834Z,100222.59
2023-04-13T23:08:08.697Z,100229.47
2023-04-13T23:10:35.610Z,100234.59
2023-04-13T23:13:03.107Z,100234.69
2023-04-13T23:15:29.822Z,100228.84
2023-04-13T23:17:56.688Z,100229.63
2023-04-13T23:20:23.917Z,100227.88
2023-04-13T23:22:50.683Z,100227.03
2023-04-13T23:25:17.597Z,100220.41
2023-04-13T23:27:44.411Z,100220.53
2023-04-13T23:30:11.605Z,100222.88
2023-04-13T23:32:38.449Z,100224.38
2023-04-13T23:35:06.068Z,100217.38
2023-04-13T23:37:32.999Z,100209.63
2023-04-13T23:40:00.054Z,100207.22
2023-04-13T23:42:28.103Z,100197.84
2023-04-13T23:44:54.828Z,100199.41
2023-04-13T23:47:22.408Z,100199.34
2023-04-13T23:49:50.898Z,100205.38
2023-04-13T23:52:17.750Z,100194.91
2023-04-13T23:54:44.579Z,100192.31
2023-04-13T23:57:12.753Z,100188.75
2023-04-13T23:59:39.743Z,100180.41
